Time;durP1;ratioP1;P1;durP2;ratioP2;P2;SDS_P1;SDS_P2;PMS_P1;PMS_P2;Temp;Humidity;BMP_temperature;BMP_pressure;BME280_temperature;BME280_humidity;BME280_pressure;Samples;Min_cycle;Max_cycle;Signal;HPM_P1;HPM_P2
2022/01/09 00:01:07;;;;;;;1.07;0.70;;;4.90;99.90;;;;;;1786558;80;21102;-79
2022/01/09 00:03:34;;;;;;;0.57;0.50;;;4.90;99.90;;;;;;1787072;80;21494;-78
2022/01/09 00:06:01;;;;;;;2.02;0.70;;;4.90;99.90;;;;;;1784810;79;21149;-79
2022/01/09 00:08:30;;;;;;;1.47;0.70;;;5.00;99.90;;;;;;1785951;79;21103;-79
2022/01/09 00:10:57;;;;;;;0.57;0.57;;;4.90;99.90;;;;;;1784891;79;21486;-79
2022/01/09 00:13:24;;;;;;;1.40;0.70;;;4.90;99.90;;;;;;1784686;79;21172;-78
2022/01/09 00:15:52;;;;;;;0.30;0.30;;;4.90;99.90;;;;;;1786867;79;21169;-79
2022/01/09 00:18:19;;;;;;;1.62;0.50;;;4.90;99.90;;;;;;1786823;80;21079;-79
2022/01/09 00:20:46;;;;;;;0.88;0.45;;;4.90;99.90;;;;;;1784317;80;21135;-79
2022/01/09 00:23:13;;;;;;;0.68;0.40;;;4.90;99.90;;;;;;1787046;80;21110;-79
2022/01/09 00:25:41;;;;;;;8.68;0.70;;;5.00;99.90;;;;;;1784200;79;21145;-79
2022/01/09 00:28:08;;;;;;;0.60;0.60;;;5.00;99.90;;;;;;1787298;79;21490;-79
2022/01/09 00:30:35;;;;;;;3.30;0.55;;;5.00;99.90;;;;;;1785485;79;21090;-79
2022/01/09 00:33:03;;;;;;;1.20;0.50;;;5.00;99.90;;;;;;1786572;79;21106;-77
2022/01/09 00:35:30;;;;;;;0.45;0.45;;;5.00;99.90;;;;;;1751298;80;21109;-77
2022/01/09 00:37:57;;;;;;;0.57;0.57;;;5.00;99.90;;;;;;1756882;80;21102;-78
2022/01/09 00:40:25;;;;;;;0.65;0.55;;;4.90;99.90;;;;;;1785779;80;21600;-78
2022/01/09 00:42:52;;;;;;;0.50;0.50;;;4.90;99.90;;;;;;1782074;79;21071;-79
2022/01/09 00:45:19;;;;;;;0.30;0.30;;;4.90;99.90;;;;;;1786233;79;21223;-78
2022/01/09 00:47:46;;;;;;;0.65;0.60;;;4.90;99.90;;;;;;1787643;80;21392;-78
2022/01/09 00:50:14;;;;;;;0.53;0.50;;;4.90;99.90;;;;;;1787463;80;21180;-78
2022/01/09 00:52:41;;;;;;;0.30;0.30;;;4.90;99.90;;;;;;1784517;80;21094;-78
2022/01/09 00:55:09;;;;;;;0.78;0.70;;;4.80;99.90;;;;;;1754826;80;21087;-79
2022/01/09 00:57:37;;;;;;;1.37;0.55;;;4.80;99.90;;;;;;1786012;80;21102;-77
2022/01/09 01:00:05;;;;;;;0.40;0.40;;;4.80;99.90;;;;;;1786319;79;21176;-78
2022/01/09 01:02:34;;;;;;;3.00;1.25;;;4.80;99.90;;;;;;1787911;79;21078;-78
2022/01/09 01:05:01;;;;;;;1.20;0.90;;;4.80;99.90;;;;;;1784871;79;21184;-78
2022/01/09 01:07:28;;;;;;;2.45;0.40;;;4.70;99.90;;;;;;1786007;79;21094;-78
2022/01/09 01:09:57;;;;;;;0.60;0.60;;;4.80;99.90;;;;;;1786320;79;21216;-78
2022/01/09 01:12:29;;;;;;;0.40;0.40;;;4.70;99.90;;;;;;1787946;79;21545;-79
2022/01/09 01:14:58;;;;;;;0.42;0.42;;;4.70;99.90;;;;;;1784391;80;21052;-79
2022/01/09 01:17:25;;;;;;;0.75;0.40;;;4.80;99.90;;;;;;1783818;79;21071;-79
2022/01/09 01:19:53;;;;;;;0.50;0.50;;;4.80;99.90;;;;;;1785036;79;21090;-78
2022/01/09 01:22:21;;;;;;;0.30;0.30;;;4.80;99.90;;;;;;1785749;79;21091;-78
2022/01/09 01:24:50;;;;;;;0.30;0.30;;;4.80;99.90;;;;;;1785890;80;21160;-78
2022/01/09 01:27:18;;;;;;;0.45;0.40;;;4.80;99.90;;;;;;1786494;80;21615;-79
2022/01/09 01:29:45;;;;;;;0.42;0.40;;;4.80;99.90;;;;;;1785947;80;21499;-78
2022/01/09 01:32:12;;;;;;;1.27;0.53;;;4.80;99.90;;;;;;1783509;79;21095;-78
2022/01/09 01:34:39;;;;;;;0.50;0.50;;;4.90;99.90;;;;;;1786394;80;21071;-78
2022/01/09 01:37:07;;;;;;;0.33;0.33;;;4.90;99.90;;;;;;1785449;79;21094;-78
2022/01/09 01:39:34;;;;;;;0.40;0.40;;;4.90;99.90;;;;;;1787616;80;21066;-78
2022/01/09 01:42:01;;;;;;;0.47;0.28;;;4.90;99.90;;;;;;1786187;80;21176;-78
2022/01/09 01:44:41;;;;;;;1.10;0.40;;;4.90;99.90;;;;;;1785415;79;21165;-78
2022/01/09 01:47:08;;;;;;;0.40;0.40;;;5.00;99.90;;;;;;1779208;79;21246;-79
2022/01/09 01:49:35;;;;;;;0.60;0.50;;;5.00;99.90;;;;;;1786033;79;21102;-78
2022/01/09 01:52:03;;;;;;;0.37;0.37;;;5.00;99.90;;;;;;1786750;79;21099;-78
2022/01/09 01:54:32;;;;;;;0.72;0.20;;;5.00;99.90;;;;;;1782846;79;21161;-78
2022/01/09 01:56:59;;;;;;;2.05;0.53;;;4.90;99.90;;;;;;1786450;78;21106;-80
2022/01/09 01:59:27;;;;;;;0.53;0.53;;;5.00;99.90;;;;;;1785530;79;21083;-78
2022/01/09 02:01:54;;;;;;;0.40;0.35;;;5.00;99.90;;;;;;1786304;79;21596;-78
2022/01/09 02:04:21;;;;;;;0.30;0.30;;;5.00;99.90;;;;;;1786192;80;21094;-78
2022/01/09 02:06:49;;;;;;;3.45;0.40;;;5.00;99.90;;;;;;1785506;80;21574;-78
2022/01/09 02:09:17;;;;;;;0.30;0.30;;;5.00;99.90;;;;;;1784700;79;21079;-78
2022/01/09 02:11:46;;;;;;;0.33;0.33;;;5.00;99.90;;;;;;1787110;80;21506;-78
2022/01/09 02:14:13;;;;;;;0.60;0.40;;;5.10;99.90;;;;;;1786416;80;21169;-78
2022/01/09 02:16:42;;;;;;;0.40;0.40;;;5.10;99.90;;;;;;1785868;79;21609;-78
2022/01/09 02:19:13;;;;;;;0.30;0.30;;;5.00;99.90;;;;;;1787218;79;21188;-78
2022/01/09 02:21:41;;;;;;;0.30;0.30;;;5.00;99.90;;;;;;1785700;79;21087;-78
2022/01/09 02:24:08;;;;;;;0.35;0.35;;;5.00;99.90;;;;;;1785873;79;21110;-78
2022/01/09 02:26:35;;;;;;;0.40;0.40;;;5.00;99.90;;;;;;1785935;80;21165;-78
2022/01/09 02:29:04;;;;;;;0.30;0.30;;;5.00;99.90;;;;;;1786255;79;21564;-78
2022/01/09 02:31:32;;;;;;;0.53;0.47;;;5.00;99.90;;;;;;1784843;79;21153;-79
2022/01/09 02:34:00;;;;;;;0.37;0.35;;;5.00;99.90;;;;;;1785923;80;21082;-79
2022/01/09 02:36:27;;;;;;;0.95;0.30;;;5.00;99.90;;;;;;1785423;79;21195;-78
2022/01/09 02:38:54;;;;;;;0.37;0.20;;;5.00;99.90;;;;;;1785741;79;21079;-78
2022/01/09 02:41:22;;;;;;;0.30;0.30;;;4.90;99.90;;;;;;1783892;79;21067;-78
2022/01/09 02:43:49;;;;;;;0.17;0.13;;;5.00;99.90;;;;;;1783808;80;21581;-79
2022/01/09 02:48:52;;;;;;;0.20;0.20;;;5.30;99.90;;;;;;1779727;80;21102;-79
2022/01/09 02:51:19;;;;;;;0.20;0.20;;;5.30;99.90;;;;;;1787850;79;21184;-80
2022/01/09 02:53:49;;;;;;;0.20;0.20;;;5.20;99.90;;;;;;1780879;79;21083;-79
2022/01/09 02:56:16;;;;;;;0.23;0.23;;;5.20;99.90;;;;;;1780097;79;21103;-79
2022/01/09 02:58:44;;;;;;;0.10;0.10;;;5.40;99.90;;;;;;1785553;79;21218;-78
2022/01/09 03:01:12;;;;;;;0.20;0.20;;;5.60;99.90;;;;;;1786299;79;21154;-79
2022/01/09 03:03:40;;;;;;;0.30;0.30;;;5.70;99.90;;;;;;1784640;79;21114;-78
2022/01/09 03:06:09;;;;;;;0.10;0.10;;;5.70;99.90;;;;;;1786335;79;21521;-78
2022/01/09 03:08:37;;;;;;;1.10;0.20;;;5.80;99.90;;;;;;1785847;78;21102;-79
2022/01/09 03:11:05;;;;;;;0.10;0.10;;;5.90;99.90;;;;;;1785097;79;21223;-79
2022/01/09 03:13:33;;;;;;;0.37;0.10;;;5.80;99.90;;;;;;1783734;80;21149;-78
2022/01/09 03:16:00;;;;;;;0.20;0.20;;;5.80;99.90;;;;;;1784735;79;21146;-77
2022/01/09 03:18:27;;;;;;;0.40;0.20;;;5.70;99.90;;;;;;1785247;79;21115;-78
2022/01/09 03:20:55;;;;;;;0.13;0.13;;;5.70;99.90;;;;;;1784593;80;21095;-77
2022/01/09 03:23:22;;;;;;;0.95;0.28;;;5.70;99.90;;;;;;1784415;80;21502;-78
2022/01/09 03:25:49;;;;;;;0.33;0.30;;;5.70;99.90;;;;;;1785299;79;21278;-77
2022/01/09 03:28:16;;;;;;;0.20;0.20;;;5.80;99.90;;;;;;1783842;80;21576;-78
2022/01/09 03:30:44;;;;;;;0.70;0.10;;;5.80;99.90;;;;;;1784265;80;21154;-78
2022/01/09 03:33:11;;;;;;;0.20;0.20;;;5.70;99.90;;;;;;1784264;79;21086;-78
2022/01/09 03:35:39;;;;;;;0.20;0.20;;;5.80;99.90;;;;;;1786671;80;21140;-77
2022/01/09 03:38:06;;;;;;;0.40;0.20;;;5.80;99.90;;;;;;1784520;80;21184;-79
2022/01/09 03:40:33;;;;;;;0.20;0.20;;;5.90;99.90;;;;;;1784392;80;21172;-78
2022/01/09 03:43:01;;;;;;;0.10;0.10;;;6.00;99.90;;;;;;1782026;79;21589;-78
2022/01/09 03:45:28;;;;;;;0.25;0.10;;;5.90;99.90;;;;;;1787958;79;21271;-77
2022/01/09 03:47:55;;;;;;;0.28;0.20;;;5.90;99.90;;;;;;1786599;79;21098;-78
2022/01/09 03:50:24;;;;;;;0.20;0.20;;;6.00;99.90;;;;;;1789423;79;21580;-78
2022/01/09 03:52:52;;;;;;;0.55;0.20;;;6.00;99.90;;;;;;1785144;80;21565;-77
2022/01/09 03:55:20;;;;;;;0.70;0.20;;;6.00;99.90;;;;;;1784925;79;21632;-77
2022/01/09 03:57:48;;;;;;;0.20;0.20;;;6.00;99.90;;;;;;1784637;79;21083;-77
2022/01/09 04:00:18;;;;;;;0.20;0.20;;;5.90;99.90;;;;;;1782232;79;21113;-78
2022/01/09 04:02:46;;;;;;;0.10;0.10;;;6.00;99.90;;;;;;1794010;80;21133;-77
2022/01/09 04:05:13;;;;;;;0.65;0.23;;;5.90;99.90;;;;;;1785551;79;21176;-77
2022/01/09 04:07:40;;;;;;;0.23;0.20;;;6.00;99.90;;;;;;1786680;80;21439;-77
2022/01/09 04:10:08;;;;;;;0.13;0.13;;;5.90;99.90;;;;;;1785336;79;21107;-77
2022/01/09 04:12:47;;;;;;;0.20;0.20;;;6.00;99.90;;;;;;1786966;79;21502;-77
2022/01/09 04:15:09;;;;;;;0.10;0.10;;;6.10;99.90;;;;;;1776842;79;21118;-78
2022/01/09 04:20:14;;;;;;;1.55;0.20;;;6.10;99.90;;;;;;1784595;79;21114;-78
2022/01/09 04:22:43;;;;;;;0.20;0.20;;;6.10;99.90;;;;;;1782827;80;21043;-78
2022/01/09 04:25:11;;;;;;;0.50;0.20;;;6.00;99.90;;;;;;1784144;79;21269;-77
2022/01/09 04:27:38;;;;;;;0.20;0.20;;;6.00;99.90;;;;;;1785798;80;21173;-77
2022/01/09 04:30:06;;;;;;;0.10;0.10;;;5.90;99.90;;;;;;1787032;79;21173;-77
2022/01/09 04:32:33;;;;;;;0.20;0.20;;;5.90;99.90;;;;;;1786607;79;22666;-78
2022/01/09 04:35:01;;;;;;;0.10;0.10;;;5.90;99.90;;;;;;1747121;80;21119;-78
2022/01/09 04:37:29;;;;;;;0.10;0.10;;;5.90;99.90;;;;;;1785876;79;21165;-77
2022/01/09 04:39:57;;;;;;;0.37;0.20;;;5.80;99.90;;;;;;1784724;79;21121;-78
2022/01/09 04:42:31;;;;;;;0.20;0.20;;;5.80;99.90;;;;;;1786756;79;21222;-78
2022/01/09 04:44:54;;;;;;;0.17;0.17;;;5.80;99.90;;;;;;1788024;79;21102;-79
2022/01/09 04:47:22;;;;;;;0.10;0.10;;;5.70;99.90;;;;;;1786836;79;21157;-79
2022/01/09 04:49:50;;;;;;;0.10;0.10;;;5.70;99.90;;;;;;1784981;79;21326;-79
2022/01/09 04:52:25;;;;;;;0.37;0.20;;;5.70;99.90;;;;;;1786031;79;21106;-78
2022/01/09 04:54:48;;;;;;;0.10;0.10;;;5.60;99.90;;;;;;1785418;79;21122;-78
2022/01/09 04:57:15;;;;;;;0.30;0.20;;;5.50;99.90;;;;;;1785147;80;21508;-78
2022/01/09 04:59:42;;;;;;;0.20;0.20;;;5.50;99.90;;;;;;1760543;80;21157;-79
2022/01/09 05:02:10;;;;;;;0.10;0.10;;;5.40;99.90;;;;;;1784420;79;21110;-78
2022/01/09 05:04:37;;;;;;;0.20;0.20;;;5.30;99.90;;;;;;1785089;80;21118;-77
2022/01/09 05:07:04;;;;;;;0.10;0.10;;;5.30;99.90;;;;;;1787668;80;21051;-76
2022/01/09 05:09:32;;;;;;;0.10;0.10;;;5.20;99.90;;;;;;1786573;79;21075;-76
2022/01/09 05:11:59;;;;;;;0.65;0.10;;;5.10;99.90;;;;;;1785049;79;21107;-77
2022/01/09 05:14:27;;;;;;;0.10;0.10;;;5.10;99.90;;;;;;1785690;79;21110;-77
2022/01/09 05:16:54;;;;;;;0.20;0.10;;;5.00;99.90;;;;;;1785270;80;21102;-76
2022/01/09 05:19:28;;;;;;;0.10;0.10;;;4.90;99.90;;;;;;1785904;79;21129;-78
2022/01/09 05:21:50;;;;;;;0.10;0.10;;;4.90;99.90;;;;;;1783776;78;21102;-77
2022/01/09 05:24:17;;;;;;;0.10;0.10;;;4.90;99.90;;;;;;1778866;78;21209;-76
2022/01/09 05:26:45;;;;;;;0.60;0.10;;;4.80;99.90;;;;;;1784000;80;21035;-77
2022/01/09 05:29:12;;;;;;;0.10;0.10;;;4.70;99.90;;;;;;1785297;80;21211;-77
2022/01/09 05:31:39;;;;;;;0.15;0.10;;;4.70;99.90;;;;;;1788724;79;21078;-78
2022/01/09 05:34:07;;;;;;;0.10;0.10;;;4.60;99.90;;;;;;1789140;79;21074;-78
2022/01/09 05:36:34;;;;;;;0.10;0.10;;;4.60;99.90;;;;;;1785897;80;21068;-77
2022/01/09 05:39:02;;;;;;;0.57;0.10;;;4.60;99.90;;;;;;1784519;79;21130;-76
2022/01/09 05:41:29;;;;;;;1.62;0.13;;;4.60;99.90;;;;;;1785794;79;21188;-77
2022/01/09 05:43:57;;;;;;;0.10;0.10;;;4.60;99.90;;;;;;1785945;80;21098;-77
2022/01/09 05:46:24;;;;;;;0.13;0.10;;;4.60;99.90;;;;;;1783735;80;21173;-77
2022/01/09 05:48:51;;;;;;;0.10;0.10;;;4.70;99.90;;;;;;1784112;80;21522;-78
2022/01/09 05:51:19;;;;;;;0.10;0.10;;;4.60;99.90;;;;;;1786363;80;21036;-77
2022/01/09 05:53:46;;;;;;;0.10;0.10;;;4.50;99.90;;;;;;1786592;79;21130;-77
2022/01/09 05:56:14;;;;;;;0.70;0.37;;;4.50;99.90;;;;;;1785531;79;21075;-77
2022/01/09 05:58:42;;;;;;;0.15;0.15;;;4.50;99.90;;;;;;1785543;80;21207;-77
2022/01/09 06:01:10;;;;;;;0.10;0.10;;;4.50;99.90;;;;;;1785726;79;21075;-78
2022/01/09 06:03:37;;;;;;;0.10;0.10;;;4.40;99.90;;;;;;1784720;79;21492;-77
2022/01/09 06:06:04;;;;;;;0.20;0.10;;;4.30;99.90;;;;;;1786842;79;21106;-78
2022/01/09 06:08:31;;;;;;;0.13;0.10;;;4.20;99.90;;;;;;1785440;79;21627;-78
2022/01/09 06:11:00;;;;;;;0.10;0.10;;;4.10;99.90;;;;;;1785003;79;21110;-76
2022/01/09 06:13:28;;;;;;;0.10;0.10;;;4.20;99.90;;;;;;1786510;79;21570;-76
2022/01/09 06:15:55;;;;;;;0.10;0.10;;;4.00;99.90;;;;;;1782871;79;21192;-76
2022/01/09 06:18:22;;;;;;;0.10;0.10;;;3.90;99.90;;;;;;1782575;79;21170;-78
2022/01/09 06:20:49;;;;;;;0.20;0.20;;;3.90;99.90;;;;;;1785248;80;21047;-76
2022/01/09 06:23:21;;;;;;;0.40;0.20;;;3.90;99.90;;;;;;1786199;80;21067;-76
2022/01/09 06:25:48;;;;;;;0.15;0.15;;;3.90;99.90;;;;;;1785523;80;21114;-77
2022/01/09 06:28:15;;;;;;;0.17;0.17;;;3.90;99.90;;;;;;1784837;79;21165;-76
2022/01/09 06:30:43;;;;;;;0.95;0.28;;;3.90;99.90;;;;;;1785355;80;21847;-78
2022/01/09 06:33:10;;;;;;;0.13;0.13;;;3.90;99.90;;;;;;1784580;79;21169;-78
2022/01/09 06:35:39;;;;;;;0.23;0.20;;;3.80;99.90;;;;;;1782280;79;21580;-77
2022/01/09 06:38:06;;;;;;;0.20;0.20;;;3.80;99.90;;;;;;1786809;79;21235;-77
2022/01/09 06:40:33;;;;;;;0.20;0.20;;;3.90;99.90;;;;;;1782561;79;21185;-77
2022/01/09 06:43:01;;;;;;;0.10;0.10;;;3.80;99.90;;;;;;1783078;78;21206;-78
2022/01/09 06:45:28;;;;;;;0.20;0.20;;;3.90;99.90;;;;;;1785401;79;21231;-78
2022/01/09 06:47:56;;;;;;;0.98;0.17;;;3.90;99.90;;;;;;1786027;79;21106;-77
2022/01/09 06:50:23;;;;;;;0.42;0.20;;;3.80;99.90;;;;;;1784311;79;21487;-76
2022/01/09 06:52:50;;;;;;;0.20;0.20;;;3.80;99.90;;;;;;1785423;79;21080;-78
2022/01/09 06:55:17;;;;;;;0.20;0.20;;;3.80;99.90;;;;;;1786671;80;21183;-76
2022/01/09 06:57:45;;;;;;;0.20;0.20;;;3.80;99.90;;;;;;1785097;79;21557;-78
2022/01/09 07:00:14;;;;;;;0.23;0.23;;;3.80;99.90;;;;;;1784049;80;21616;-77
2022/01/09 07:02:42;;;;;;;0.20;0.20;;;3.80;99.90;;;;;;1786935;80;21172;-78
2022/01/09 07:05:09;;;;;;;0.62;0.20;;;3.70;99.90;;;;;;1784737;79;21220;-78
2022/01/09 07:07:37;;;;;;;0.13;0.13;;;3.70;99.90;;;;;;1788887;79;21545;-76
2022/01/09 07:10:05;;;;;;;0.20;0.20;;;3.70;99.90;;;;;;1754922;80;21091;-78
2022/01/09 07:12:32;;;;;;;0.30;0.30;;;3.60;99.90;;;;;;1785967;79;21083;-78
2022/01/09 07:14:59;;;;;;;0.40;0.20;;;3.60;99.90;;;;;;1784474;80;21180;-76
2022/01/09 07:17:27;;;;;;;0.93;0.30;;;3.60;99.90;;;;;;1784380;79;21165;-76
2022/01/09 07:19:54;;;;;;;0.28;0.20;;;3.60;99.90;;;;;;1787306;79;21180;-77
2022/01/09 07:22:21;;;;;;;0.30;0.30;;;3.60;99.90;;;;;;1787320;80;21099;-78
2022/01/09 07:24:50;;;;;;;0.80;0.20;;;3.60;99.90;;;;;;1785306;79;21478;-78
2022/01/09 07:27:18;;;;;;;0.40;0.20;;;3.50;99.90;;;;;;1789411;79;21202;-77
2022/01/09 07:29:45;;;;;;;0.30;0.20;;;3.50;99.90;;;;;;1784621;80;21098;-76
2022/01/09 07:32:13;;;;;;;0.42;0.28;;;3.50;99.90;;;;;;1788383;80;21216;-77
2022/01/09 07:34:40;;;;;;;0.35;0.20;;;3.50;99.90;;;;;;1786656;80;21220;-78
2022/01/09 07:37:07;;;;;;;0.20;0.20;;;3.50;99.90;;;;;;1785742;80;21165;-77
2022/01/09 07:39:35;;;;;;;0.95;0.70;;;3.60;99.90;;;;;;1784299;79;21475;-76
2022/01/09 07:42:02;;;;;;;0.40;0.37;;;3.50;99.90;;;;;;1785650;80;21257;-77
2022/01/09 07:44:29;;;;;;;4.60;0.70;;;3.60;99.90;;;;;;1786163;79;21110;-76
2022/01/09 07:46:57;;;;;;;1.45;0.40;;;3.60;99.90;;;;;;1783869;79;21482;-78
2022/01/09 07:49:24;;;;;;;1.80;0.60;;;3.70;99.90;;;;;;1786566;80;21106;-78
2022/01/09 07:51:51;;;;;;;6.03;0.80;;;3.70;99.90;;;;;;1785054;79;21180;-78
2022/01/09 07:54:19;;;;;;;27.93;0.82;;;3.70;99.90;;;;;;1785045;79;21197;-76
2022/01/09 07:56:46;;;;;;;1.72;0.60;;;3.70;99.90;;;;;;1785146;79;21102;-77
2022/01/09 07:59:13;;;;;;;0.98;0.50;;;3.70;99.90;;;;;;1784491;80;21572;-78
2022/01/09 08:01:40;;;;;;;4.65;1.27;;;3.80;99.90;;;;;;1784476;79;21176;-75
2022/01/09 08:04:08;;;;;;;5.37;2.02;;;3.80;99.90;;;;;;1786742;79;21463;-77
2022/01/09 08:06:36;;;;;;;5.40;2.52;;;3.90;99.90;;;;;;1788833;80;21102;-76
2022/01/09 08:09:03;;;;;;;2.05;0.88;;;3.90;99.90;;;;;;1785094;79;21196;-76
2022/01/09 08:11:30;;;;;;;2.87;1.32;;;3.90;99.90;;;;;;1785854;79;21180;-76
2022/01/09 08:13:58;;;;;;;4.62;1.10;;;4.00;99.90;;;;;;1785568;79;21159;-78
2022/01/09 08:16:25;;;;;;;3.50;1.10;;;4.10;99.90;;;;;;1784231;79;21303;-77
2022/01/09 08:18:54;;;;;;;1.95;0.82;;;4.10;99.90;;;;;;1787116;80;21459;-76
2022/01/09 08:21:23;;;;;;;5.80;1.30;;;4.20;99.90;;;;;;1786335;80;21099;-78
2022/01/09 08:23:50;;;;;;;5.85;1.72;;;4.20;99.90;;;;;;1786823;80;21188;-76
2022/01/09 08:26:18;;;;;;;10.70;1.60;;;4.30;99.90;;;;;;1783730;79;21098;-77
2022/01/09 08:28:47;;;;;;;2.58;1.10;;;4.40;99.90;;;;;;1785694;80;21521;-75
2022/01/09 08:31:17;;;;;;;4.62;1.40;;;4.40;99.90;;;;;;1785825;80;21115;-77
2022/01/09 08:33:45;;;;;;;4.72;1.12;;;4.50;99.90;;;;;;1785539;80;21102;-76
2022/01/09 08:36:12;;;;;;;7.33;1.57;;;4.60;99.90;;;;;;1787957;79;21176;-76
2022/01/09 08:38:40;;;;;;;8.98;1.55;;;4.60;99.90;;;;;;1785024;80;21114;-75
2022/01/09 08:41:07;;;;;;;9.60;1.10;;;4.60;99.90;;;;;;1784791;79;21110;-77
2022/01/09 08:43:36;;;;;;;3.98;1.22;;;4.70;99.90;;;;;;1784755;80;21180;-76
2022/01/09 08:46:04;;;;;;;7.80;1.77;;;4.70;99.90;;;;;;1786920;80;21246;-73
2022/01/09 08:48:31;;;;;;;7.53;1.40;;;4.80;99.90;;;;;;1786461;80;21137;-76
2022/01/09 08:50:58;;;;;;;5.90;1.40;;;4.90;99.90;;;;;;1787362;80;21066;-76
2022/01/09 08:53:26;;;;;;;7.28;1.27;;;4.90;99.90;;;;;;1786627;79;21637;-75
2022/01/09 08:55:53;;;;;;;4.42;1.80;;;4.90;99.90;;;;;;1786121;80;21223;-75
2022/01/09 08:58:20;;;;;;;3.55;1.25;;;4.90;99.90;;;;;;1785513;80;21102;-75
2022/01/09 09:00:48;;;;;;;4.42;1.30;;;4.90;99.90;;;;;;1788385;80;21107;-74
2022/01/09 09:03:15;;;;;;;10.15;1.52;;;4.90;99.90;;;;;;1784994;79;21110;-74
2022/01/09 09:05:42;;;;;;;3.35;1.10;;;5.00;99.90;;;;;;1783753;80;21191;-75
2022/01/09 09:08:10;;;;;;;8.35;1.40;;;5.10;99.90;;;;;;1785729;79;21499;-76
2022/01/09 09:10:37;;;;;;;7.35;1.47;;;5.10;99.90;;;;;;1785534;79;21181;-76
2022/01/09 09:13:04;;;;;;;9.73;1.82;;;5.10;99.90;;;;;;1785831;80;21083;-78
2022/01/09 09:15:32;;;;;;;3.85;1.35;;;5.20;99.90;;;;;;1783718;79;21090;-78
2022/01/09 09:17:59;;;;;;;4.08;1.32;;;5.30;99.90;;;;;;1788274;79;21268;-78
2022/01/09 09:20:30;;;;;;;5.20;1.47;;;5.30;99.90;;;;;;1788445;79;21518;-77
2022/01/09 09:22:58;;;;;;;9.40;1.20;;;5.20;99.90;;;;;;1784919;80;21094;-76
2022/01/09 09:25:26;;;;;;;8.00;1.62;;;5.20;99.90;;;;;;1784298;80;21549;-75
2022/01/09 09:27:53;;;;;;;8.75;1.75;;;5.20;99.90;;;;;;1788337;79;21105;-75
2022/01/09 09:30:20;;;;;;;5.90;1.22;;;5.20;99.90;;;;;;1789490;79;21279;-77
2022/01/09 09:32:47;;;;;;;3.85;2.02;;;5.20;99.90;;;;;;1785195;79;21153;-76
2022/01/09 09:35:15;;;;;;;7.35;1.52;;;5.20;99.90;;;;;;1789708;79;21110;-74
2022/01/09 09:37:42;;;;;;;6.65;1.50;;;5.30;99.90;;;;;;1788747;80;21152;-75
2022/01/09 09:40:10;;;;;;;6.03;1.90;;;5.40;99.90;;;;;;1789938;80;21180;-76
2022/01/09 09:42:37;;;;;;;4.45;1.45;;;5.60;99.90;;;;;;1789363;79;21109;-75
2022/01/09 09:45:07;;;;;;;6.22;1.60;;;5.60;99.90;;;;;;1786224;79;21640;-76
2022/01/09 09:47:34;;;;;;;8.23;1.80;;;5.60;99.90;;;;;;1786801;80;21145;-75
2022/01/09 09:50:03;;;;;;;4.70;1.72;;;5.60;99.90;;;;;;1785618;79;21250;-77
2022/01/09 09:52:31;;;;;;;7.42;1.70;;;5.60;99.90;;;;;;1790092;79;21091;-76
2022/01/09 09:54:58;;;;;;;6.87;1.60;;;5.50;99.90;;;;;;1790692;79;21100;-75
2022/01/09 09:57:25;;;;;;;5.87;2.12;;;5.50;99.90;;;;;;1787668;80;21180;-76
2022/01/09 10:00:01;;;;;;;5.97;1.70;;;5.50;99.90;;;;;;1787583;79;21106;-75
2022/01/09 10:02:43;;;;;;;8.13;1.30;;;5.40;99.90;;;;;;1784553;79;21098;-76
2022/01/09 10:05:11;;;;;;;7.10;2.00;;;5.30;99.90;;;;;;1786616;80;21098;-76
2022/01/09 10:07:38;;;;;;;4.87;1.50;;;5.20;99.90;;;;;;1789506;79;21107;-80
2022/01/09 10:10:09;;;;;;;6.67;1.75;;;5.10;99.90;;;;;;1789746;79;21262;-75
2022/01/09 10:12:36;;;;;;;6.47;1.80;;;5.30;99.90;;;;;;1758260;80;21126;-74
2022/01/09 10:15:06;;;;;;;9.05;1.82;;;5.40;99.90;;;;;;1784414;79;21114;-75
2022/01/09 10:17:35;;;;;;;5.80;1.47;;;5.50;99.90;;;;;;1785825;79;21192;-74
2022/01/09 10:20:11;;;;;;;7.65;1.37;;;5.50;99.90;;;;;;1785326;79;21167;-74
2022/01/09 10:22:52;;;;;;;9.13;2.25;;;5.40;99.90;;;;;;1787502;79;21110;-75
2022/01/09 10:25:32;;;;;;;6.25;1.92;;;5.40;99.90;;;;;;1779919;80;21079;-74
2022/01/09 10:28:07;;;;;;;7.40;1.85;;;5.40;99.90;;;;;;1775831;80;21111;-74
2022/01/09 10:30:39;;;;;;;6.72;1.72;;;5.40;99.90;;;;;;1785581;80;21574;-75
2022/01/09 10:33:15;;;;;;;4.22;1.67;;;5.50;99.90;;;;;;1787591;79;21112;-75
2022/01/09 10:35:44;;;;;;;9.10;1.60;;;5.60;99.90;;;;;;1786665;80;21079;-77
2022/01/09 10:38:19;;;;;;;22.45;1.92;;;5.60;99.90;;;;;;1787001;79;21180;-75
2022/01/09 10:40:54;;;;;;;7.47;1.47;;;5.70;99.90;;;;;;1778176;79;21116;-77
2022/01/09 10:43:22;;;;;;;5.15;1.47;;;5.70;99.90;;;;;;1784998;78;21184;-75
2022/01/09 10:46:01;;;;;;;6.67;1.70;;;5.70;99.90;;;;;;1785302;79;21074;-73
2022/01/09 10:48:36;;;;;;;6.00;1.45;;;5.70;99.90;;;;;;1785406;78;21114;-74
2022/01/09 10:51:05;;;;;;;7.60;1.55;;;5.80;99.90;;;;;;1786001;79;21483;-74
2022/01/09 10:53:36;;;;;;;9.08;1.70;;;5.80;99.90;;;;;;1784996;80;21202;-75
2022/01/09 10:56:13;;;;;;;8.03;1.50;;;5.70;99.90;;;;;;1785432;79;21090;-76
2022/01/09 10:58:44;;;;;;;6.37;1.50;;;5.70;99.90;;;;;;1785584;79;21129;-75
2022/01/09 11:01:17;;;;;;;6.42;1.57;;;5.60;99.90;;;;;;1784427;80;21047;-76
2022/01/09 11:03:46;;;;;;;10.63;2.17;;;5.50;99.90;;;;;;1784230;80;21091;-74
2022/01/09 11:06:14;;;;;;;9.33;1.92;;;5.50;99.90;;;;;;1787556;80;21094;-74
2022/01/09 11:08:42;;;;;;;7.58;1.37;;;5.40;99.90;;;;;;1785463;80;21181;-74
2022/01/09 11:11:22;;;;;;;11.18;1.65;;;5.40;99.90;;;;;;1783976;80;21137;-72
2022/01/09 11:13:43;;;;;;;6.17;1.52;;;5.50;99.90;;;;;;1782178;79;21173;-73
2022/01/09 11:18:57;;;;;;;7.75;1.60;;;6.60;99.90;;;;;;1761037;80;21111;-73
2022/01/09 11:21:25;;;;;;;3.87;1.20;;;7.50;99.90;;;;;;1785771;80;21118;-74
2022/01/09 11:24:04;;;;;;;6.37;1.40;;;7.50;99.90;;;;;;1784700;79;21490;-75
2022/01/09 11:26:46;;;;;;;7.97;1.47;;;7.90;99.90;;;;;;1787535;80;21485;-75
2022/01/09 11:29:15;;;;;;;4.72;1.40;;;7.90;99.90;;;;;;1781460;79;21507;-75
2022/01/09 11:31:45;;;;;;;2.87;1.22;;;8.30;99.90;;;;;;1786152;79;21238;-76
2022/01/09 11:34:18;;;;;;;3.50;0.98;;;8.40;99.90;;;;;;1786868;80;21058;-75
2022/01/09 11:37:05;;;;;;;6.62;1.52;;;8.40;99.90;;;;;;1785387;79;21107;-76
2022/01/09 11:39:37;;;;;;;5.90;1.30;;;7.50;99.90;;;;;;1781985;79;21185;-75
2022/01/09 11:42:18;;;;;;;3.27;0.95;;;7.00;99.90;;;;;;1786094;79;21522;-74
2022/01/09 11:44:53;;;;;;;5.08;1.80;;;6.90;99.90;;;;;;1756216;81;21220;-73
2022/01/09 11:47:22;;;;;;;3.90;1.47;;;6.90;99.90;;;;;;1772520;81;21036;-74
2022/01/09 11:49:58;;;;;;;5.67;1.65;;;7.10;99.90;;;;;;1781082;79;21099;-75
2022/01/09 11:52:27;;;;;;;3.42;1.27;;;7.30;99.90;;;;;;1786265;79;21507;-74
2022/01/09 11:54:59;;;;;;;8.73;1.10;;;7.50;99.90;;;;;;1782535;80;21569;-75
2022/01/09 11:57:48;;;;;;;2.95;0.82;;;8.10;99.90;;;;;;1786203;79;21589;-75
2022/01/09 12:00:41;;;;;;;5.03;1.40;;;8.40;99.90;;;;;;1785056;80;21559;-76
2022/01/09 12:03:32;;;;;;;3.10;1.02;;;9.40;99.90;;;;;;1784062;80;21086;-74
2022/01/09 12:06:10;;;;;;;4.03;1.05;;;9.90;99.90;;;;;;1784269;79;21110;-77
2022/01/09 12:09:00;;;;;;;3.08;1.37;;;9.40;99.90;;;;;;1784791;80;21110;-77
2022/01/09 12:12:06;;;;;;;7.72;1.40;;;9.40;99.90;;;;;;1788029;80;21110;-78
2022/01/09 12:14:54;;;;;;;26.12;1.15;;;9.20;99.90;;;;;;1785917;79;21113;-75
2022/01/09 12:17:28;;;;;;;5.10;1.57;;;8.80;99.90;;;;;;1781185;79;21189;-76
2022/01/09 12:20:05;;;;;;;7.03;1.10;;;8.50;99.90;;;;;;1784803;80;21161;-75
2022/01/09 12:22:53;;;;;;;2.77;1.10;;;8.70;99.90;;;;;;1786171;79;21498;-75
2022/01/09 12:25:30;;;;;;;4.60;1.22;;;9.20;99.90;;;;;;1778830;79;21455;-76
2022/01/09 12:27:57;;;;;;;4.37;1.07;;;9.20;99.90;;;;;;1784804;79;21149;-75
2022/01/09 12:30:40;;;;;;;6.62;1.40;;;8.20;99.90;;;;;;1786579;80;21138;-76
2022/01/09 12:33:11;;;;;;;4.15;1.05;;;7.90;99.90;;;;;;1785885;80;21183;-75
2022/01/09 12:35:41;;;;;;;5.20;1.25;;;7.30;99.90;;;;;;1786013;79;21274;-79
2022/01/09 12:38:09;;;;;;;9.43;1.55;;;7.30;99.90;;;;;;1784078;79;21568;-76
2022/01/09 12:40:38;;;;;;;6.67;1.30;;;7.40;99.90;;;;;;1755476;80;21145;-74
2022/01/09 12:43:06;;;;;;;9.45;1.17;;;7.40;99.90;;;;;;1784084;79;21235;-75
2022/01/09 12:45:40;;;;;;;1.50;0.98;;;7.40;99.90;;;;;;1785424;80;21109;-76
2022/01/09 12:48:07;;;;;;;4.00;1.32;;;7.20;99.90;;;;;;1777083;79;21185;-76
2022/01/09 12:50:36;;;;;;;5.72;1.30;;;7.20;99.90;;;;;;1786151;80;21110;-76
2022/01/09 12:53:26;;;;;;;4.47;1.20;;;7.20;99.90;;;;;;1785638;79;21560;-75
2022/01/09 12:55:57;;;;;;;5.53;1.10;;;6.90;99.90;;;;;;1787043;79;21114;-76
2022/01/09 12:58:29;;;;;;;4.03;1.02;;;7.20;99.90;;;;;;1784374;79;21176;-76
2022/01/09 13:00:57;;;;;;;2.08;1.00;;;7.30;99.90;;;;;;1784717;79;21451;-76
2022/01/09 13:03:26;;;;;;;6.20;1.20;;;7.40;99.90;;;;;;1786425;79;21106;-75
2022/01/09 13:05:54;;;;;;;9.53;1.60;;;7.60;99.90;;;;;;1784976;79;21106;-74
2022/01/09 13:08:22;;;;;;;2.98;1.25;;;8.50;99.90;;;;;;1784538;79;21172;-75
2022/01/09 13:11:00;;;;;;;3.75;1.30;;;9.60;99.90;;;;;;1773411;79;21111;-74
2022/01/09 13:13:28;;;;;;;6.62;1.20;;;9.60;99.90;;;;;;1784612;79;21070;-76
2022/01/09 13:15:56;;;;;;;4.40;1.30;;;8.90;99.90;;;;;;1784638;80;21188;-76